Time;durP1;ratioP1;P1;durP2;ratioP2;P2;SDS_P1;SDS_P2;PMS_P1;PMS_P2;Temp;Humidity;BMP_temperature;BMP_pressure;BME280_temperature;BME280_humidity;BME280_pressure;Samples;Min_cycle;Max_cycle;Signal;HPM_P1;HPM_P2
2023/03/13 00:01:44;;;;;;;7.93;3.08;;;;;;;;;;10336300;28;20049;-77
2023/03/13 00:06:45;;;;;;;9.18;3.60;;;;;;;;;;10307624;28;20057;-77
2023/03/13 00:11:46;;;;;;;8.57;3.25;;;;;;;;;;10312221;28;20039;-78
2023/03/13 00:16:46;;;;;;;6.57;2.92;;;;;;;;;;10308749;28;20058;-78
2023/03/13 00:21:46;;;;;;;7.77;3.30;;;;;;;;;;10298830;28;21153;-77
2023/03/13 00:26:47;;;;;;;6.65;3.00;;;;;;;;;;10306536;28;20642;-77
2023/03/13 00:31:48;;;;;;;6.72;2.60;;;;;;;;;;10315874;28;20049;-76
2023/03/13 00:36:53;;;;;;;5.40;2.53;;;;;;;;;;10318402;28;20049;-77
2023/03/13 00:41:55;;;;;;;8.50;3.47;;;;;;;;;;10297440;28;20500;-76
2023/03/13 00:46:56;;;;;;;9.60;3.35;;;;;;;;;;10323393;28;20050;-76
2023/03/13 00:51:57;;;;;;;4.78;2.83;;;;;;;;;;10315847;28;20054;-76
2023/03/13 00:56:57;;;;;;;6.05;2.78;;;;;;;;;;10293138;28;21325;-78
2023/03/13 01:01:58;;;;;;;7.95;3.13;;;;;;;;;;10307116;28;20066;-77
2023/03/13 01:06:58;;;;;;;6.68;2.78;;;;;;;;;;10308651;28;20057;-77
2023/03/13 01:11:59;;;;;;;10.52;3.83;;;;;;;;;;10308304;28;20656;-76
2023/03/13 01:16:59;;;;;;;8.93;3.13;;;;;;;;;;10291775;28;20065;-76
2023/03/13 01:22:01;;;;;;;5.68;2.60;;;;;;;;;;10271760;28;20062;-76
2023/03/13 01:27:02;;;;;;;6.95;2.75;;;;;;;;;;10305281;28;20050;-78
2023/03/13 01:32:02;;;;;;;6.35;3.00;;;;;;;;;;10288595;28;20058;-77
2023/03/13 01:37:04;;;;;;;6.57;2.95;;;;;;;;;;10302567;28;20479;-76
2023/03/13 01:42:05;;;;;;;8.82;3.03;;;;;;;;;;10287161;28;20062;-77
2023/03/13 01:47:06;;;;;;;7.20;3.05;;;;;;;;;;10305697;28;20110;-78
2023/03/13 01:52:29;;;;;;;6.82;2.50;;;;;;;;;;10310185;28;20062;-77
2023/03/13 01:57:41;;;;;;;7.60;2.78;;;;;;;;;;10335226;28;20098;-76
2023/03/13 02:02:45;;;;;;;4.85;2.50;;;;;;;;;;10358965;28;20118;-74
2023/03/13 02:07:46;;;;;;;5.25;2.70;;;;;;;;;;10281280;28;20060;-74
2023/03/13 02:12:47;;;;;;;7.70;2.55;;;;;;;;;;10310640;28;20055;-77
2023/03/13 02:17:49;;;;;;;7.10;2.53;;;;;;;;;;10306692;28;20562;-75
2023/03/13 02:23:00;;;;;;;5.13;2.80;;;;;;;;;;10294193;28;20109;-77
2023/03/13 02:28:07;;;;;;;7.72;2.78;;;;;;;;;;10311357;28;20054;-75
2023/03/13 02:33:11;;;;;;;10.07;3.10;;;;;;;;;;10309005;28;20058;-75
2023/03/13 02:38:16;;;;;;;7.07;2.78;;;;;;;;;;10319431;28;20525;-76
2023/03/13 02:43:30;;;;;;;5.72;2.30;;;;;;;;;;10295776;28;20226;-75
2023/03/13 02:48:38;;;;;;;6.85;2.72;;;;;;;;;;10306828;28;20041;-75
2023/03/13 02:53:39;;;;;;;6.60;2.60;;;;;;;;;;10309840;28;20133;-74
2023/03/13 02:58:41;;;;;;;8.98;2.67;;;;;;;;;;10295926;28;20054;-76
2023/03/13 03:03:43;;;;;;;6.20;2.65;;;;;;;;;;10319549;28;20061;-77
2023/03/13 03:08:44;;;;;;;6.57;3.33;;;;;;;;;;10343414;28;20042;-77
2023/03/13 03:13:46;;;;;;;5.10;2.40;;;;;;;;;;10354156;28;20046;-77
2023/03/13 03:18:50;;;;;;;5.43;2.63;;;;;;;;;;10302276;28;20051;-77
2023/03/13 03:23:53;;;;;;;7.88;2.35;;;;;;;;;;10296295;28;20058;-77
2023/03/13 03:28:53;;;;;;;6.50;2.83;;;;;;;;;;10308311;28;20137;-77
2023/03/13 03:33:55;;;;;;;8.60;2.58;;;;;;;;;;10295364;28;20774;-77
2023/03/13 03:38:55;;;;;;;6.18;2.25;;;;;;;;;;10312317;28;20050;-77
2023/03/13 03:43:59;;;;;;;10.57;2.10;;;;;;;;;;10311607;28;20089;-77
2023/03/13 03:49:09;;;;;;;5.82;2.13;;;;;;;;;;10293235;28;20054;-79
2023/03/13 03:54:09;;;;;;;5.40;2.20;;;;;;;;;;10294038;28;20050;-78
2023/03/13 03:59:10;;;;;;;7.47;2.50;;;;;;;;;;10289539;28;20106;-78
2023/03/13 04:04:20;;;;;;;5.40;2.75;;;;;;;;;;10293600;28;20220;-77
2023/03/13 04:09:26;;;;;;;7.93;2.50;;;;;;;;;;10290323;28;20146;-77
2023/03/13 04:14:26;;;;;;;6.35;2.55;;;;;;;;;;10309045;28;20057;-76
2023/03/13 04:19:27;;;;;;;7.57;2.63;;;;;;;;;;10291765;28;20057;-76
2023/03/13 04:24:28;;;;;;;7.88;2.67;;;;;;;;;;10296069;28;20062;-77
2023/03/13 04:29:33;;;;;;;8.30;2.63;;;;;;;;;;10300310;28;20056;-77
2023/03/13 04:34:53;;;;;;;5.07;2.13;;;;;;;;;;10313111;28;20058;-77
2023/03/13 04:40:09;;;;;;;5.35;2.05;;;;;;;;;;10301666;28;20058;-77
2023/03/13 04:45:45;;;;;;;8.52;2.55;;;;;;;;;;10291228;28;20058;-77
2023/03/13 04:51:06;;;;;;;6.47;2.17;;;;;;;;;;10296654;28;20057;-76
2023/03/13 04:56:24;;;;;;;6.78;2.25;;;;;;;;;;10300809;28;20050;-77
2023/03/13 05:01:43;;;;;;;6.00;2.65;;;;;;;;;;10362838;28;20038;-78
2023/03/13 05:07:05;;;;;;;5.72;2.72;;;;;;;;;;10278613;28;20161;-78
2023/03/13 05:12:06;;;;;;;8.30;2.20;;;;;;;;;;10306596;28;20054;-77
2023/03/13 05:17:25;;;;;;;5.93;2.50;;;;;;;;;;10328641;28;20469;-76
2023/03/13 05:22:29;;;;;;;7.18;2.22;;;;;;;;;;10309655;28;20081;-77
2023/03/13 05:27:49;;;;;;;9.00;2.92;;;;;;;;;;10314593;28;20050;-75
2023/03/13 05:33:25;;;;;;;6.53;2.78;;;;;;;;;;10227292;28;20134;-76
2023/03/13 05:38:46;;;;;;;7.45;2.55;;;;;;;;;;10312365;28;20716;-77
2023/03/13 05:43:47;;;;;;;5.27;2.40;;;;;;;;;;10306664;28;20055;-77
2023/03/13 05:49:10;;;;;;;6.67;2.60;;;;;;;;;;10284898;28;20052;-76
2023/03/13 05:54:37;;;;;;;5.95;2.58;;;;;;;;;;10301994;28;20042;-80
2023/03/13 05:59:58;;;;;;;5.90;2.63;;;;;;;;;;10293077;28;21111;-75
2023/03/13 06:05:19;;;;;;;5.00;2.90;;;;;;;;;;10290114;28;20057;-75
2023/03/13 06:10:20;;;;;;;5.38;2.47;;;;;;;;;;10292420;28;20042;-79
2023/03/13 06:15:27;;;;;;;7.65;2.92;;;;;;;;;;10326185;28;20810;-75
2023/03/13 06:20:44;;;;;;;7.40;3.03;;;;;;;;;;10337035;28;20046;-74
2023/03/13 06:25:46;;;;;;;6.47;3.13;;;;;;;;;;10344758;28;20046;-75
2023/03/13 06:30:47;;;;;;;9.73;3.30;;;;;;;;;;10305228;28;20120;-74
2023/03/13 06:35:47;;;;;;;9.75;2.85;;;;;;;;;;10288925;28;20821;-76
2023/03/13 06:40:48;;;;;;;5.47;2.60;;;;;;;;;;10311187;28;20054;-76
2023/03/13 06:45:48;;;;;;;4.70;2.88;;;;;;;;;;10303429;28;20046;-75
2023/03/13 06:50:49;;;;;;;7.57;2.78;;;;;;;;;;10290681;28;20505;-75
2023/03/13 06:55:50;;;;;;;7.03;2.45;;;;;;;;;;10308845;28;20045;-76
2023/03/13 07:00:52;;;;;;;5.40;2.40;;;;;;;;;;10291879;28;20627;-76
2023/03/13 07:05:56;;;;;;;6.13;2.55;;;;;;;;;;10308024;28;20038;-76
2023/03/13 07:11:03;;;;;;;4.15;2.15;;;;;;;;;;10288872;28;20042;-76
2023/03/13 07:16:11;;;;;;;4.72;2.53;;;;;;;;;;10306641;28;20062;-78
2023/03/13 07:21:16;;;;;;;6.45;2.50;;;;;;;;;;10305544;28;20089;-76
2023/03/13 07:26:17;;;;;;;6.63;3.15;;;;;;;;;;10304436;28;20050;-76
2023/03/13 07:31:19;;;;;;;6.80;2.47;;;;;;;;;;10291335;28;20062;-78
2023/03/13 07:36:23;;;;;;;5.00;2.00;;;;;;;;;;10294607;28;20039;-77
2023/03/13 07:41:24;;;;;;;5.50;2.28;;;;;;;;;;10313447;28;20409;-76
2023/03/13 07:46:24;;;;;;;4.60;2.00;;;;;;;;;;10302158;28;20052;-76
2023/03/13 07:51:25;;;;;;;5.43;2.00;;;;;;;;;;10328106;28;20046;-77
2023/03/13 07:56:25;;;;;;;3.55;1.90;;;;;;;;;;10327750;28;20129;-77
2023/03/13 08:01:27;;;;;;;5.25;1.58;;;;;;;;;;10322313;28;20141;-76
2023/03/13 08:06:29;;;;;;;3.10;1.58;;;;;;;;;;10318310;28;20050;-77
2023/03/13 08:11:31;;;;;;;5.13;1.58;;;;;;;;;;10317415;28;20038;-77
2023/03/13 08:16:33;;;;;;;4.47;2.10;;;;;;;;;;10316077;28;20061;-78
2023/03/13 08:21:36;;;;;;;3.65;2.13;;;;;;;;;;10316538;28;20683;-78
2023/03/13 08:26:37;;;;;;;5.40;1.50;;;;;;;;;;10318254;28;20128;-79
2023/03/13 08:31:41;;;;;;;6.38;1.83;;;;;;;;;;10318107;28;20088;-80
2023/03/13 08:36:42;;;;;;;3.38;1.75;;;;;;;;;;10318034;28;20482;-83
2023/03/13 08:41:43;;;;;;;2.83;1.48;;;;;;;;;;10339858;28;20129;-79
2023/03/13 08:46:43;;;;;;;5.03;1.70;;;;;;;;;;10357026;28;20053;-78
2023/03/13 08:51:52;;;;;;;;;;;;;;;;;;10289532;28;20458;-78
2023/03/13 08:56:53;;;;;;;3.78;1.80;;;;;;;;;;10294420;28;20271;-78
2023/03/13 09:01:54;;;;;;;2.58;1.95;;;;;;;;;;10316689;28;20124;-77
2023/03/13 09:06:55;;;;;;;4.32;1.55;;;;;;;;;;10301175;28;20094;-79
2023/03/13 09:11:56;;;;;;;2.95;1.70;;;;;;;;;;10317110;28;20057;-76
2023/03/13 09:16:58;;;;;;;3.55;1.70;;;;;;;;;;10296058;28;20059;-79
2023/03/13 09:21:58;;;;;;;2.42;1.40;;;;;;;;;;10326827;28;20514;-78
2023/03/13 09:27:01;;;;;;;3.92;1.58;;;;;;;;;;10338135;28;20073;-77
2023/03/13 09:32:02;;;;;;;3.90;1.70;;;;;;;;;;10348425;28;20090;-79
2023/03/13 09:37:04;;;;;;;1.48;1.38;;;;;;;;;;10358928;28;20038;-79
2023/03/13 09:42:06;;;;;;;;;;;;;;;;;;10319606;28;20495;-79
2023/03/13 09:47:20;;;;;;;4.40;1.50;;;;;;;;;;10312224;28;19921;-76
2023/03/13 09:52:35;;;;;;;1.77;1.30;;;;;;;;;;10316620;28;20133;-76
2023/03/13 09:57:48;;;;;;;1.50;1.10;;;;;;;;;;10312941;28;20069;-79
2023/03/13 10:03:01;;;;;;;1.67;1.17;;;;;;;;;;10313152;28;20450;-76
2023/03/13 10:08:19;;;;;;;1.08;0.98;;;;;;;;;;10317172;28;20679;-77
2023/03/13 10:13:43;;;;;;;1.02;0.90;;;;;;;;;;10309491;28;20050;-77
2023/03/13 10:18:47;;;;;;;2.05;1.30;;;;;;;;;;10148562;29;20598;-77
2023/03/13 10:23:50;;;;;;;0.80;0.80;;;;;;;;;;10267033;28;20722;-76
2023/03/13 10:28:51;;;;;;;0.65;0.65;;;;;;;;;;10306404;28;20049;-78
2023/03/13 10:33:52;;;;;;;0.77;0.70;;;;;;;;;;10300682;28;21010;-76
2023/03/13 10:38:53;;;;;;;1.92;1.08;;;;;;;;;;10286644;28;20050;-77
2023/03/13 10:43:58;;;;;;;1.88;0.95;;;;;;;;;;10286918;28;20066;-76
2023/03/13 10:49:00;;;;;;;1.20;0.90;;;;;;;;;;10290467;28;20054;-78
2023/03/13 10:54:12;;;;;;;1.35;1.00;;;;;;;;;;10288691;28;20471;-79
2023/03/13 10:59:23;;;;;;;1.95;0.98;;;;;;;;;;10314283;28;20054;-77
2023/03/13 11:04:29;;;;;;;1.45;1.08;;;;;;;;;;10328386;28;20068;-80
2023/03/13 11:09:29;;;;;;;4.10;1.40;;;;;;;;;;10306837;28;20042;-76
2023/03/13 11:14:31;;;;;;;1.73;1.20;;;;;;;;;;10302409;28;20057;-77
2023/03/13 11:19:40;;;;;;;1.67;1.13;;;;;;;;;;10278282;28;20053;-77
2023/03/13 11:24:40;;;;;;;1.40;1.10;;;;;;;;;;10315276;28;20145;-76
2023/03/13 11:29:53;;;;;;;2.45;1.13;;;;;;;;;;10318593;28;20142;-78
2023/03/13 11:34:56;;;;;;;4.20;2.20;;;;;;;;;;10295417;28;20050;-80
2023/03/13 11:40:30;;;;;;;2.58;1.20;;;;;;;;;;10306292;28;20040;-77
2023/03/13 11:45:30;;;;;;;;;;;;;;;;;;10250214;28;20395;-76
2023/03/13 11:50:36;;;;;;;1.92;1.20;;;;;;;;;;10282809;28;19917;-78
2023/03/13 11:55:45;;;;;;;1.48;1.30;;;;;;;;;;10302125;28;20130;-78
2023/03/13 12:00:52;;;;;;;2.15;1.50;;;;;;;;;;10285647;28;20096;-77
2023/03/13 12:05:56;;;;;;;2.13;1.45;;;;;;;;;;10303347;28;20058;-79
2023/03/13 12:10:57;;;;;;;2.85;1.48;;;;;;;;;;10286226;28;20058;-78
2023/03/13 12:15:59;;;;;;;5.83;1.50;;;;;;;;;;10272393;28;20085;-77
2023/03/13 12:21:20;;;;;;;2.75;1.50;;;;;;;;;;10304840;28;20321;-79
2023/03/13 12:26:34;;;;;;;2.17;1.70;;;;;;;;;;10309813;28;20086;-82
2023/03/13 12:31:53;;;;;;;3.17;1.60;;;;;;;;;;10298973;28;21252;-79
2023/03/13 12:36:58;;;;;;;3.47;1.50;;;;;;;;;;10338050;28;20137;-79
2023/03/13 12:42:17;;;;;;;2.83;1.52;;;;;;;;;;10355759;28;20063;-78
2023/03/13 12:47:30;;;;;;;3.42;1.52;;;;;;;;;;10361637;28;20403;-79
2023/03/13 12:52:30;;;;;;;4.22;1.60;;;;;;;;;;10339668;28;20586;-79
2023/03/13 12:57:34;;;;;;;1.85;1.52;;;;;;;;;;10314922;28;20042;-78
2023/03/13 13:02:37;;;;;;;2.75;1.70;;;;;;;;;;10316600;28;20050;-77
2023/03/13 13:07:39;;;;;;;2.77;1.47;;;;;;;;;;10294937;28;20144;-80
2023/03/13 13:12:40;;;;;;;1.90;1.67;;;;;;;;;;10318532;28;20141;-80
2023/03/13 13:17:56;;;;;;;2.25;1.60;;;;;;;;;;10293859;28;20038;-79
2023/03/13 13:23:15;;;;;;;3.80;1.88;;;;;;;;;;10295732;28;20066;-79
2023/03/13 13:28:17;;;;;;;1.60;1.45;;;;;;;;;;10315839;28;20506;-80
2023/03/13 13:33:27;;;;;;;3.40;1.85;;;;;;;;;;10307517;28;20046;-80
2023/03/13 13:38:33;;;;;;;2.80;1.77;;;;;;;;;;10329459;28;20577;-80
2023/03/13 13:43:43;;;;;;;2.88;1.52;;;;;;;;;;10315600;28;20647;-79
2023/03/13 13:48:44;;;;;;;3.50;1.70;;;;;;;;;;10295329;28;20482;-80
2023/03/13 13:53:55;;;;;;;2.35;1.55;;;;;;;;;;10314960;28;20050;-79
2023/03/13 13:59:15;;;;;;;3.92;2.25;;;;;;;;;;10300814;28;20054;-77
2023/03/13 14:04:34;;;;;;;3.97;1.98;;;;;;;;;;10314088;28;20051;-78
2023/03/13 14:09:42;;;;;;;5.03;1.73;;;;;;;;;;10311873;28;20090;-78
2023/03/13 14:14:43;;;;;;;3.70;1.70;;;;;;;;;;10295773;28;20066;-79
2023/03/13 14:19:43;;;;;;;2.90;1.97;;;;;;;;;;10297443;28;20061;-78
2023/03/13 14:24:54;;;;;;;2.10;1.90;;;;;;;;;;10298884;28;20316;-78
2023/03/13 14:29:58;;;;;;;2.72;2.22;;;;;;;;;;10311273;28;20046;-78
2023/03/13 14:34:59;;;;;;;4.57;1.88;;;;;;;;;;10293346;28;20054;-78
2023/03/13 14:40:09;;;;;;;2.20;1.60;;;;;;;;;;10296099;28;20138;-78
2023/03/13 14:45:20;;;;;;;3.58;1.92;;;;;;;;;;10292938;28;20065;-77
2023/03/13 14:50:22;;;;;;;2.92;1.70;;;;;;;;;;10314609;28;20192;-79
2023/03/13 14:55:22;;;;;;;3.60;2.00;;;;;;;;;;10294818;28;20042;-79
2023/03/13 15:00:29;;;;;;;3.47;1.80;;;;;;;;;;10313791;28;20096;-81
2023/03/13 15:05:31;;;;;;;2.70;1.90;;;;;;;;;;10287043;28;20096;-81
2023/03/13 15:10:33;;;;;;;2.03;1.80;;;;;;;;;;10279000;28;20121;-79
2023/03/13 15:15:33;;;;;;;2.83;1.90;;;;;;;;;;10311262;28;20050;-79
2023/03/13 15:20:35;;;;;;;2.35;1.85;;;;;;;;;;10289802;28;20081;-81
2023/03/13 15:25:35;;;;;;;2.55;1.80;;;;;;;;;;10308486;28;20057;-79
2023/03/13 15:30:36;;;;;;;3.28;2.00;;;;;;;;;;10316083;28;20053;-79
2023/03/13 15:35:37;;;;;;;3.38;1.85;;;;;;;;;;10302122;28;20062;-78
2023/03/13 15:40:37;;;;;;;2.42;1.70;;;;;;;;;;10322461;28;20100;-80
2023/03/13 15:45:41;;;;;;;4.88;1.83;;;;;;;;;;10340814;28;20049;-80
2023/03/13 15:50:42;;;;;;;2.45;2.10;;;;;;;;;;10342229;28;20062;-79
2023/03/13 15:55:42;;;;;;;3.08;1.85;;;;;;;;;;10370771;28;20062;-80
2023/03/13 16:00:44;;;;;;;3.83;1.90;;;;;;;;;;10369849;28;20084;-79
2023/03/13 16:05:47;;;;;;;2.30;2.00;;;;;;;;;;10326055;28;20297;-81
2023/03/13 16:10:49;;;;;;;3.47;2.20;;;;;;;;;;10334473;28;20520;-80
2023/03/13 16:15:50;;;;;;;2.70;2.00;;;;;;;;;;10321017;28;20046;-80
2023/03/13 16:20:51;;;;;;;5.63;3.20;;;;;;;;;;10298270;28;20570;-80
2023/03/13 16:25:51;;;;;;;3.50;2.70;;;;;;;;;;10326217;28;20304;-81
2023/03/13 16:30:52;;;;;;;2.80;2.17;;;;;;;;;;10316716;28;20597;-81
2023/03/13 16:35:53;;;;;;;5.95;2.42;;;;;;;;;;10294690;28;20301;-79
2023/03/13 16:40:53;;;;;;;2.88;2.13;;;;;;;;;;10292562;28;20133;-79
2023/03/13 16:45:55;;;;;;;3.60;1.87;;;;;;;;;;10312238;28;20533;-78
2023/03/13 16:50:56;;;;;;;7.10;3.40;;;;;;;;;;10296204;28;20308;-80
2023/03/13 16:55:56;;;;;;;3.53;3.10;;;;;;;;;;10312144;28;21044;-79
2023/03/13 17:00:57;;;;;;;3.38;2.58;;;;;;;;;;10311898;28;20078;-79
2023/03/13 17:05:57;;;;;;;4.20;2.22;;;;;;;;;;10312892;28;21288;-79
2023/03/13 17:10:58;;;;;;;5.83;2.00;;;;;;;;;;10310742;28;20069;-79
2023/03/13 17:15:59;;;;;;;3.25;1.85;;;;;;;;;;10293634;28;20309;-80
2023/03/13 17:21:00;;;;;;;4.65;2.05;;;;;;;;;;10294837;28;20166;-81
2023/03/13 17:26:00;;;;;;;3.13;2.10;;;;;;;;;;10281116;28;20116;-79
2023/03/13 17:31:02;;;;;;;5.13;2.00;;;;;;;;;;10291288;28;20391;-80
2023/03/13 17:36:28;;;;;;;4.40;2.50;;;;;;;;;;10291200;28;20046;-79
2023/03/13 17:41:30;;;;;;;5.90;2.40;;;;;;;;;;10290000;28;20062;-80
2023/03/13 17:46:43;;;;;;;3.58;2.75;;;;;;;;;;10311565;28;20043;-79
2023/03/13 17:51:45;;;;;;;8.02;5.63;;;;;;;;;;10304264;28;20156;-79
2023/03/13 17:56:45;;;;;;;9.35;6.68;;;;;;;;;;10299643;28;20082;-79
2023/03/13 18:01:46;;;;;;;7.35;4.93;;;;;;;;;;10303816;28;20596;-83
2023/03/13 18:06:50;;;;;;;7.85;4.15;;;;;;;;;;10341748;28;20054;-79
2023/03/13 18:11:52;;;;;;;4.50;3.13;;;;;;;;;;10316266;28;20177;-80
2023/03/13 18:16:56;;;;;;;2.67;2.25;;;;;;;;;;10309119;28;20471;-81
2023/03/13 18:21:56;;;;;;;5.93;2.65;;;;;;;;;;10323626;28;20086;-81
2023/03/13 18:26:57;;;;;;;3.72;2.40;;;;;;;;;;10326965;28;20133;-80
2023/03/13 18:31:59;;;;;;;4.47;2.30;;;;;;;;;;10320791;28;20046;-81
2023/03/13 18:37:02;;;;;;;3.47;2.05;;;;;;;;;;10309622;28;20097;-83
2023/03/13 18:42:03;;;;;;;3.15;2.25;;;;;;;;;;10328602;28;20108;-80
2023/03/13 18:47:14;;;;;;;3.42;2.10;;;;;;;;;;10319018;28;20100;-81
2023/03/13 18:52:14;;;;;;;3.85;2.35;;;;;;;;;;10303228;28;20042;-79
2023/03/13 18:57:16;;;;;;;2.92;1.90;;;;;;;;;;10335883;28;20116;-80
2023/03/13 19:02:17;;;;;;;2.00;1.80;;;;;;;;;;10354889;28;20050;-81
2023/03/13 19:07:23;;;;;;;4.65;2.85;;;;;;;;;;10333060;28;20125;-81
2023/03/13 19:12:28;;;;;;;4.90;2.55;;;;;;;;;;10327323;28;20529;-82
2023/03/13 19:17:31;;;;;;;3.55;1.90;;;;;;;;;;10304278;28;20057;-78
2023/03/13 19:22:34;;;;;;;3.33;1.92;;;;;;;;;;10299270;28;20061;-78
2023/03/13 19:27:34;;;;;;;4.15;2.13;;;;;;;;;;10313963;28;20039;-76
2023/03/13 19:32:34;;;;;;;4.70;2.60;;;;;;;;;;10300653;28;20790;-77
2023/03/13 19:37:35;;;;;;;10.77;2.45;;;;;;;;;;10324217;28;20050;-77
2023/03/13 19:42:35;;;;;;;3.40;2.72;;;;;;;;;;10304637;28;20068;-76
2023/03/13 19:47:36;;;;;;;4.75;2.63;;;;;;;;;;10322824;28;20477;-76
2023/03/13 19:52:37;;;;;;;6.20;3.47;;;;;;;;;;10326258;28;20117;-76
2023/03/13 19:57:39;;;;;;;5.88;2.95;;;;;;;;;;10321948;28;20821;-77
2023/03/13 20:02:40;;;;;;;6.13;3.08;;;;;;;;;;10327052;28;20078;-77
2023/03/13 20:07:41;;;;;;;5.95;2.95;;;;;;;;;;10308620;28;20128;-76
2023/03/13 20:12:41;;;;;;;9.30;4.15;;;;;;;;;;10307647;28;20411;-77
2023/03/13 20:17:41;;;;;;;7.18;3.72;;;;;;;;;;10308473;28;20050;-76
2023/03/13 20:22:42;;;;;;;5.53;3.67;;;;;;;;;;10313545;28;20101;-76
2023/03/13 20:27:44;;;;;;;10.15;5.45;;;;;;;;;;10310003;28;20050;-78
2023/03/13 20:32:44;;;;;;;8.65;4.88;;;;;;;;;;10327857;28;20050;-76
2023/03/13 20:37:46;;;;;;;12.05;5.22;;;;;;;;;;10312662;28;20768;-78
2023/03/13 20:42:46;;;;;;;11.95;5.32;;;;;;;;;;10308055;28;20518;-76
2023/03/13 20:47:47;;;;;;;12.27;5.55;;;;;;;;;;10299875;28;20042;-76
2023/03/13 20:52:48;;;;;;;7.57;5.20;;;;;;;;;;10321332;28;20047;-77
2023/03/13 20:57:48;;;;;;;8.85;5.03;;;;;;;;;;10320647;28;20074;-76
2023/03/13 21:02:49;;;;;;;7.90;5.30;;;;;;;;;;10304577;28;20090;-75
2023/03/13 21:07:50;;;;;;;5.43;4.10;;;;;;;;;;10308413;28;20046;-79
2023/03/13 21:12:50;;;;;;;6.55;4.15;;;;;;;;;;10316143;28;20062;-77
2023/03/13 21:17:52;;;;;;;11.63;6.88;;;;;;;;;;10306795;28;20513;-77
2023/03/13 21:22:53;;;;;;;11.95;5.97;;;;;;;;;;10303547;28;20153;-78
2023/03/13 21:27:53;;;;;;;10.57;5.88;;;;;;;;;;10300915;28;20462;-76
2023/03/13 21:32:54;;;;;;;11.25;6.68;;;;;;;;;;10317507;28;20046;-75
2023/03/13 21:37:54;;;;;;;9.30;6.30;;;;;;;;;;10319242;28;20120;-75
2023/03/13 21:42:54;;;;;;;6.80;4.30;;;;;;;;;;10305839;28;20065;-74
2023/03/13 21:47:55;;;;;;;7.85;4.10;;;;;;;;;;10297492;28;20038;-77
2023/03/13 21:52:56;;;;;;;7.00;3.70;;;;;;;;;;10321431;28;20054;-74
2023/03/13 21:57:57;;;;;;;3.65;1.90;;;;;;;;;;10306399;28;20046;-76
2023/03/13 22:02:57;;;;;;;2.47;1.65;;;;;;;;;;10331727;28;20086;-75
2023/03/13 22:07:57;;;;;;;3.13;1.80;;;;;;;;;;10354108;28;20057;-77
2023/03/13 22:12:58;;;;;;;4.30;1.83;;;;;;;;;;10353884;28;20040;-78
2023/03/13 22:17:58;;;;;;;5.60;1.60;;;;;;;;;;10355874;28;20409;-76
2023/03/13 22:22:59;;;;;;;2.55;1.60;;;;;;;;;;10295786;28;20086;-78
2023/03/13 22:28:00;;;;;;;3.20;1.52;;;;;;;;;;10299514;28;20128;-75
2023/03/13 22:33:02;;;;;;;2.23;1.70;;;;;;;;;;10314345;28;20046;-76
2023/03/13 22:38:03;;;;;;;3.65;1.70;;;;;;;;;;10313140;28;20305;-75
2023/03/13 22:43:03;;;;;;;1.75;1.48;;;;;;;;;;10315429;28;20529;-77
2023/03/13 22:48:05;;;;;;;4.40;1.38;;;;;;;;;;10298184;28;20042;-75
2023/03/13 22:53:05;;;;;;;4.00;1.40;;;;;;;;;;10297741;28;20133;-76
2023/03/13 22:58:07;;;;;;;1.87;1.40;;;;;;;;;;10311956;28;20636;-76
2023/03/13 23:03:09;;;;;;;3.10;1.50;;;;;;;;;;10309637;28;20322;-77
2023/03/13 23:08:10;;;;;;;2.00;1.20;;;;;;;;;;10311115;28;20513;-76
2023/03/13 23:13:10;;;;;;;1.90;1.02;;;;;;;;;;10305367;28;20293;-78
2023/03/13 23:18:11;;;;;;;2.40;0.75;;;;;;;;;;10315027;28;20038;-76
2023/03/13 23:23:11;;;;;;;1.45;0.70;;;;;;;;;;10278063;28;20694;-78
2023/03/13 23:28:12;;;;;;;1.10;0.80;;;;;;;;;;10291806;28;20057;-77
2023/03/13 23:33:13;;;;;;;1.00;0.90;;;;;;;;;;10292307;28;20046;-79
2023/03/13 23:38:17;;;;;;;1.35;0.80;;;;;;;;;;10298771;28;20475;-78
2023/03/13 23:43:17;;;;;;;1.33;0.90;;;;;;;;;;10295017;28;20058;-74
2023/03/13 23:48:20;;;;;;;1.75;0.93;;;;;;;;;;10308060;28;20042;-77
2023/03/13 23:53:21;;;;;;;0.80;0.73;;;;;;;;;;10305621;28;20046;-78
2023/03/13 23:58:21;;;;;;;1.58;0.80;;;;;;;;;;10309570;28;20485;-76
